createdAt,value
2019-04-07T00:01:27.556Z,60.10
2019-04-07T00:03:56.182Z,61.73
2019-04-07T00:06:24.670Z,59.70
2019-04-07T00:08:53.572Z,59.20
2019-04-07T00:11:24.028Z,60.00
2019-04-07T00:13:52.562Z,60.77
2019-04-07T00:16:21.539Z,61.00
2019-04-07T00:18:50.057Z,61.90
2019-04-07T00:21:18.577Z,61.80
2019-04-07T00:23:47.073Z,62.50
2019-04-07T00:26:15.713Z,62.83
2019-04-07T00:28:44.307Z,62.83
2019-04-07T00:31:13.383Z,64.03
2019-04-07T00:33:42.623Z,63.20
2019-04-07T00:36:11.215Z,67.00
2019-04-07T00:38:39.762Z,66.83
2019-04-07T00:41:08.874Z,66.73
2019-04-07T00:43:38.081Z,67.93
2019-04-07T00:46:06.626Z,66.57
2019-04-07T00:48:35.099Z,67.50
2019-04-07T00:51:03.704Z,67.67
2019-04-07T00:53:32.168Z,69.10
2019-04-07T00:56:00.690Z,66.73
2019-04-07T00:58:29.238Z,67.23
2019-04-07T01:00:57.785Z,68.43
2019-04-07T01:03:26.899Z,68.00
2019-04-07T01:05:56.096Z,70.13
2019-04-07T01:08:24.618Z,70.13
2019-04-07T01:10:53.345Z,72.40
2019-04-07T01:13:22.004Z,69.50
2019-04-07T01:15:50.666Z,71.97
2019-04-07T01:18:19.593Z,72.20
2019-04-07T01:20:48.405Z,72.57
2019-04-07T01:23:17.127Z,72.93
2019-04-07T01:25:45.735Z,75.80
2019-04-07T01:28:14.769Z,73.37
2019-04-07T01:30:43.344Z,73.90
2019-04-07T01:33:11.901Z,73.97
2019-04-07T01:35:48.081Z,76.30
2019-04-07T01:38:10.666Z,75.63
2019-04-07T01:40:39.135Z,76.20
2019-04-07T01:43:09.334Z,74.97
2019-04-07T01:45:39.615Z,76.90
2019-04-07T01:48:19.236Z,81.17
2019-04-07T01:50:52.640Z,79.27
2019-04-07T01:53:25.724Z,81.10
2019-04-07T01:56:11.028Z,79.43
2019-04-07T01:58:44.401Z,79.03
2019-04-07T02:01:20.883Z,79.63
2019-04-07T02:03:51.237Z,80.93
2019-04-07T02:06:33.302Z,79.43
2019-04-07T02:09:03.610Z,79.37
2019-04-07T02:11:42.958Z,81.00
2019-04-07T02:14:22.455Z,81.97
2019-04-07T02:16:52.750Z,78.90
2019-04-07T02:19:38.034Z,80.70
2019-04-07T02:22:26.730Z,79.77
2019-04-07T02:24:57.519Z,80.17
2019-04-07T02:27:39.641Z,79.67
2019-04-07T02:30:14.380Z,79.33
2019-04-07T02:32:44.680Z,77.30
2019-04-07T02:35:24.641Z,77.03
2019-04-07T02:37:54.926Z,75.97
2019-04-07T02:40:34.324Z,75.67
2019-04-07T02:43:10.953Z,73.47
2019-04-07T02:45:59.841Z,74.40
2019-04-07T02:48:48.928Z,74.93
2019-04-07T02:51:22.903Z,77.33
2019-04-07T02:54:09.191Z,74.07
2019-04-07T02:56:42.645Z,80.20
2019-04-07T02:59:29.208Z,73.97
2019-04-07T03:02:05.884Z,74.13
2019-04-07T03:04:42.304Z,72.90
2019-04-07T03:07:29.109Z,75.67
2019-04-07T03:10:02.934Z,73.53
2019-04-07T03:12:42.341Z,75.13
2019-04-07T03:15:16.113Z,73.97
2019-04-07T03:17:47.667Z,73.20
2019-04-07T03:20:18.740Z,72.57
2019-04-07T03:22:55.010Z,72.33
2019-04-07T03:25:31.094Z,71.17
2019-04-07T03:28:04.706Z,74.10
2019-04-07T03:30:37.522Z,71.40
2019-04-07T03:33:18.097Z,71.30
2019-04-07T03:36:01.140Z,71.67
2019-04-07T03:38:34.338Z,71.37
2019-04-07T03:41:19.707Z,69.23
2019-04-07T03:43:53.004Z,71.83
2019-04-07T03:46:29.081Z,73.00
2019-04-07T03:49:11.367Z,76.10
2019-04-07T03:51:48.082Z,73.13
2019-04-07T03:54:28.304Z,75.80
2019-04-07T03:56:58.663Z,74.33
2019-04-07T03:59:31.466Z,74.03
2019-04-07T04:02:07.960Z,75.00
2019-04-07T04:04:39.348Z,75.87
2019-04-07T04:07:29.981Z,75.50
2019-04-07T04:09:54.255Z,78.43
2019-04-07T04:12:37.414Z,82.37
2019-04-07T04:15:09.038Z,78.70
2019-04-07T04:17:37.701Z,80.67
2019-04-07T04:20:08.267Z,82.23
2019-04-07T04:22:37.737Z,79.47
2019-04-07T04:25:08.485Z,81.27
2019-04-07T04:27:38.769Z,82.90
2019-04-07T04:30:10.523Z,80.63
2019-04-07T04:32:39.764Z,82.33
2019-04-07T04:35:08.647Z,82.33
2019-04-07T04:37:44.398Z,81.30
2019-04-07T04:40:07.718Z,83.27
2019-04-07T04:42:36.277Z,85.40
2019-04-07T04:45:08.317Z,87.97
2019-04-07T04:47:37.689Z,87.20
2019-04-07T04:50:08.182Z,87.87
2019-04-07T04:52:37.976Z,87.43
2019-04-07T04:55:07.260Z,88.93
2019-04-07T04:57:35.897Z,89.63
2019-04-07T05:00:08.689Z,88.33
2019-04-07T05:02:37.198Z,92.33
2019-04-07T05:05:09.409Z,89.10
2019-04-07T05:07:50.078Z,88.87
2019-04-07T05:10:08.305Z,84.50
2019-04-07T05:12:37.045Z,85.83
2019-04-07T05:15:07.702Z,84.90
2019-04-07T05:17:36.915Z,84.43
2019-04-07T05:20:07.012Z,83.00
2019-04-07T05:22:35.865Z,85.73
2019-04-07T05:25:07.072Z,77.77
2019-04-07T05:27:35.797Z,79.30
2019-04-07T05:30:07.762Z,75.17
2019-04-07T05:32:36.842Z,76.77
2019-04-07T05:35:07.819Z,72.07
2019-04-07T05:37:36.633Z,70.20
2019-04-07T05:40:05.964Z,68.10
2019-04-07T05:42:34.506Z,60.33
2019-04-07T05:45:05.148Z,57.63
2019-04-07T05:47:33.823Z,52.33
2019-04-07T05:50:04.019Z,50.73
2019-04-07T05:52:37.843Z,49.33
2019-04-07T05:55:03.318Z,47.90
2019-04-07T05:57:34.650Z,47.73
2019-04-07T06:00:02.599Z,46.80
2019-04-07T06:02:32.594Z,45.50
2019-04-07T06:05:01.434Z,45.07
2019-04-07T06:07:31.791Z,44.23
2019-04-07T06:10:00.976Z,46.53
2019-04-07T06:12:29.523Z,45.93
2019-04-07T06:14:58.527Z,46.10
2019-04-07T06:17:27.734Z,41.73
2019-04-07T06:19:57.705Z,42.30
2019-04-07T06:22:26.310Z,41.83
2019-04-07T06:24:54.858Z,40.57
2019-04-07T06:27:23.993Z,40.43
2019-04-07T06:29:57.195Z,40.10
2019-04-07T06:32:22.787Z,38.40
2019-04-07T06:34:51.287Z,38.97
2019-04-07T06:37:19.998Z,36.27
2019-04-07T06:39:50.594Z,37.77
2019-04-07T06:42:18.780Z,37.13
2019-04-07T06:44:50.105Z,38.00
2019-04-07T06:47:30.791Z,37.50
2019-04-07T06:50:15.980Z,38.17
2019-04-07T06:52:53.127Z,35.83
2019-04-07T06:55:26.633Z,36.90
2019-04-07T06:57:59.219Z,36.93
2019-04-07T07:00:46.198Z,37.97
2019-04-07T07:03:22.647Z,35.20
2019-04-07T07:06:05.654Z,36.43
2019-04-07T07:08:43.815Z,34.47
2019-04-07T07:11:23.125Z,35.47
2019-04-07T07:13:45.071Z,35.37
2019-04-07T07:16:27.756Z,34.70
2019-04-07T07:19:02.042Z,33.97
2019-04-07T07:21:39.214Z,32.60
2019-04-07T07:24:05.973Z,34.60
2019-04-07T07:26:35.423Z,33.93
2019-04-07T07:29:06.479Z,32.27
2019-04-07T07:31:34.801Z,29.37
2019-04-07T07:34:03.785Z,32.03
2019-04-07T07:36:32.871Z,29.73
2019-04-07T07:39:03.301Z,30.72
2019-04-07T07:41:31.656Z,30.65
2019-04-07T07:44:03.229Z,29.05
2019-04-07T07:46:30.457Z,28.80
2019-04-07T07:49:01.904Z,28.45
2019-04-07T07:51:29.346Z,28.50
2019-04-07T07:54:00.555Z,30.77
2019-04-07T07:56:28.113Z,28.30
2019-04-07T07:58:59.867Z,29.10
2019-04-07T08:01:26.874Z,28.32
2019-04-07T08:03:55.792Z,28.05
2019-04-07T08:06:26.273Z,28.15
2019-04-07T08:09:07.426Z,26.40
2019-04-07T08:11:25.372Z,27.80
2019-04-07T08:13:55.323Z,25.85
2019-04-07T08:16:24.071Z,27.62
2019-04-07T08:18:52.630Z,27.25
2019-04-07T08:21:21.285Z,26.12
2019-04-07T08:23:49.808Z,25.77
2019-04-07T08:26:18.339Z,24.87
2019-04-07T08:28:49.246Z,24.82
2019-04-07T08:31:21.346Z,27.07
2019-04-07T08:33:51.238Z,26.00
2019-04-07T08:36:18.483Z,23.70
2019-04-07T08:38:47.685Z,25.62
2019-04-07T08:41:16.690Z,24.67
2019-04-07T08:43:45.369Z,22.40
2019-04-07T08:46:14.038Z,25.00
2019-04-07T08:48:42.556Z,23.65
2019-04-07T08:51:11.269Z,24.90
2019-04-07T08:53:43.559Z,22.55
2019-04-07T08:56:13.001Z,22.55
2019-04-07T08:58:42.483Z,22.00
2019-04-07T09:01:11.225Z,21.73
2019-04-07T09:03:39.991Z,21.00
2019-04-07T09:06:08.610Z,21.90
2019-04-07T09:08:39.020Z,20.02
2019-04-07T09:11:12.389Z,19.12
2019-04-07T09:13:44.056Z,21.35
2019-04-07T09:16:17.741Z,21.75
2019-04-07T09:19:04.355Z,20.32
2019-04-07T09:21:38.662Z,19.17
2019-04-07T09:24:21.355Z,20.05
2019-04-07T09:26:52.351Z,19.82
2019-04-07T09:29:27.984Z,18.45
2019-04-07T09:32:06.568Z,19.15
2019-04-07T09:34:42.853Z,17.15
2019-04-07T09:37:17.756Z,15.53
2019-04-07T09:40:04.790Z,13.85
2019-04-07T09:42:35.592Z,16.48
2019-04-07T09:45:24.505Z,16.17
2019-04-07T09:48:10.844Z,15.10
2019-04-07T09:50:58.643Z,15.25
2019-04-07T09:53:28.610Z,15.40
2019-04-07T09:56:08.505Z,14.58
2019-04-07T09:58:39.192Z,15.70
2019-04-07T10:01:12.354Z,15.18
2019-04-07T10:03:43.402Z,14.45
2019-04-07T10:06:28.501Z,13.98
2019-04-07T10:08:58.872Z,14.05
2019-04-07T10:11:31.874Z,14.78
2019-04-07T10:14:05.667Z,14.90
2019-04-07T10:16:48.479Z,14.03
2019-04-07T10:19:25.493Z,13.55
2019-04-07T10:22:02.610Z,13.80
2019-04-07T10:24:39.403Z,13.58
2019-04-07T10:27:10.779Z,14.40
2019-04-07T10:29:43.924Z,14.43
2019-04-07T10:32:30.847Z,14.50
2019-04-07T10:35:07.098Z,14.10
2019-04-07T10:37:55.078Z,14.73
2019-04-07T10:40:34.580Z,14.03
2019-04-07T10:43:20.256Z,13.30
2019-04-07T10:45:58.913Z,13.65
2019-04-07T10:48:37.963Z,13.35
2019-04-07T10:51:28.501Z,13.03
2019-04-07T10:54:02.598Z,14.03
2019-04-07T10:56:45.082Z,13.72
2019-04-07T10:59:16.058Z,13.80
2019-04-07T11:01:58.538Z,13.00
2019-04-07T11:04:37.661Z,12.50
2019-04-07T11:07:20.509Z,11.95
2019-04-07T11:09:50.884Z,13.68
2019-04-07T11:12:27.569Z,12.88
2019-04-07T11:15:09.635Z,13.10
2019-04-07T11:17:43.585Z,12.82
2019-04-07T11:20:20.500Z,13.08
2019-04-07T11:22:59.571Z,13.30
2019-04-07T11:25:41.459Z,12.33
2019-04-07T11:28:12.273Z,14.05
2019-04-07T11:30:43.648Z,15.00
2019-04-07T11:33:23.020Z,15.40
2019-04-07T11:36:06.027Z,15.40
2019-04-07T11:38:51.631Z,14.73
2019-04-07T11:41:28.838Z,15.03
2019-04-07T11:44:02.022Z,14.87
2019-04-07T11:46:48.753Z,15.27
2019-04-07T11:49:22.953Z,15.83
2019-04-07T11:52:09.378Z,15.67
2019-04-07T11:54:52.117Z,17.43
2019-04-07T11:57:31.231Z,16.53
2019-04-07T12:00:14.151Z,16.83
2019-04-07T12:03:00.815Z,18.77
2019-04-07T12:05:37.758Z,17.97
2019-04-07T12:08:20.414Z,18.03
2019-04-07T12:11:06.732Z,17.43
2019-04-07T12:13:42.886Z,17.30
2019-04-07T12:16:29.514Z,17.20
2019-04-07T12:19:00.171Z,17.97
2019-04-07T12:21:36.076Z,18.13
2019-04-07T12:24:24.599Z,18.03
2019-04-07T12:26:51.835Z,18.70
2019-04-07T12:29:22.299Z,18.30
2019-04-07T12:32:12.288Z,18.33
2019-04-07T12:34:58.534Z,17.57
2019-04-07T12:37:31.781Z,17.37
2019-04-07T12:40:09.359Z,17.70
2019-04-07T12:42:58.073Z,16.97
2019-04-07T12:45:28.516Z,17.70
2019-04-07T12:47:59.384Z,15.30
2019-04-07T12:50:35.791Z,16.27
2019-04-07T12:53:22.800Z,15.93
2019-04-07T12:56:00.983Z,14.07
2019-04-07T12:58:46.050Z,14.90
2019-04-07T13:01:31.682Z,14.83
2019-04-07T13:04:01.863Z,14.83
2019-04-07T13:06:35.248Z,14.77
2019-04-07T13:09:24.549Z,14.70
2019-04-07T13:12:00.323Z,14.77
2019-04-07T13:14:47.890Z,14.70
2019-04-07T13:17:37.984Z,15.60
2019-04-07T13:20:23.415Z,16.23
2019-04-07T13:23:06.086Z,14.83
2019-04-07T13:25:39.635Z,14.77
2019-04-07T13:28:10.840Z,14.53
2019-04-07T13:30:58.355Z,14.17
2019-04-07T13:33:46.841Z,16.23
2019-04-07T13:36:23.558Z,14.33
2019-04-07T13:39:10.138Z,14.60
2019-04-07T13:41:45.775Z,15.70
2019-04-07T13:44:17.978Z,16.67
2019-04-07T13:46:48.932Z,17.50
2019-04-07T13:49:35.948Z,17.37
2019-04-07T13:52:06.144Z,16.77
2019-04-07T13:54:49.286Z,16.87
2019-04-07T13:57:22.266Z,17.27
2019-04-07T14:00:06.610Z,16.57
2019-04-07T14:02:40.050Z,16.87
2019-04-07T14:05:20.063Z,15.83
2019-04-07T14:08:07.069Z,16.77
2019-04-07T14:10:47.143Z,16.43
2019-04-07T14:13:26.745Z,16.33
2019-04-07T14:15:57.632Z,15.37
2019-04-07T14:18:32.032Z,14.70
2019-04-07T14:21:02.988Z,14.50
2019-04-07T14:23:52.100Z,14.63
2019-04-07T14:26:21.267Z,14.33
2019-04-07T14:28:54.074Z,13.40
2019-04-07T14:31:25.075Z,14.17
2019-04-07T14:33:55.646Z,13.07
2019-04-07T14:36:42.751Z,13.83
2019-04-07T14:39:13.742Z,14.70
2019-04-07T14:41:49.869Z,14.63
2019-04-07T14:44:32.132Z,14.07
2019-04-07T14:47:20.577Z,13.73
2019-04-07T14:49:57.210Z,15.17
2019-04-07T14:52:30.714Z,14.20
2019-04-07T14:55:13.005Z,14.03
2019-04-07T14:57:52.444Z,14.47
2019-04-07T15:00:29.223Z,13.17
2019-04-07T15:02:57.976Z,14.57
2019-04-07T15:05:31.054Z,12.50
2019-04-07T15:08:01.343Z,12.70
2019-04-07T15:10:37.449Z,12.47
2019-04-07T15:13:07.671Z,12.97
2019-04-07T15:15:36.865Z,12.77
2019-04-07T15:18:05.436Z,13.47
2019-04-07T15:20:34.447Z,12.87
2019-04-07T15:23:03.090Z,13.53
2019-04-07T15:25:31.666Z,13.43
2019-04-07T15:28:01.252Z,13.00
2019-04-07T15:30:29.982Z,13.53
2019-04-07T15:33:01.152Z,13.20
2019-04-07T15:35:29.633Z,13.57
2019-04-07T15:37:59.167Z,13.83
2019-04-07T15:40:28.150Z,14.33
2019-04-07T15:43:00.602Z,13.80
2019-04-07T15:45:27.461Z,13.67
2019-04-07T15:47:56.473Z,14.37
2019-04-07T15:50:29.236Z,14.10
2019-04-07T15:52:56.314Z,15.30
2019-04-07T15:55:37.130Z,14.83
2019-04-07T15:57:59.650Z,14.07
2019-04-07T16:00:28.415Z,15.23
2019-04-07T16:02:58.882Z,14.60
2019-04-07T16:05:27.849Z,14.77
2019-04-07T16:07:56.430Z,14.53
2019-04-07T16:10:25.899Z,14.93
2019-04-07T16:12:58.726Z,15.30
2019-04-07T16:15:25.110Z,15.57
2019-04-07T16:17:53.666Z,15.20
2019-04-07T16:20:26.287Z,19.40
2019-04-07T16:22:53.501Z,15.00
2019-04-07T16:25:25.458Z,15.97
2019-04-07T16:27:52.186Z,15.47
2019-04-07T16:30:23.214Z,15.70
2019-04-07T16:32:52.423Z,15.17
2019-04-07T16:35:21.335Z,15.10
2019-04-07T16:38:02.840Z,15.17
2019-04-07T16:40:35.887Z,16.77
2019-04-07T16:43:13.339Z,15.27
2019-04-07T16:45:34.623Z,15.83
2019-04-07T16:48:04.975Z,15.07
2019-04-07T16:50:33.364Z,15.10
2019-04-07T16:53:06.413Z,14.67
2019-04-07T16:55:37.524Z,15.03
2019-04-07T16:58:08.343Z,14.60
2019-04-07T17:00:38.373Z,14.60
2019-04-07T17:03:09.896Z,15.03
2019-04-07T17:05:46.217Z,14.30
2019-04-07T17:08:17.714Z,14.43
2019-04-07T17:10:45.334Z,15.70
2019-04-07T17:13:20.149Z,14.97
2019-04-07T17:15:44.509Z,14.87
2019-04-07T17:18:39.006Z,16.67
2019-04-07T17:21:16.712Z,14.70
2019-04-07T17:23:45.801Z,16.37
2019-04-07T17:26:14.623Z,16.47
2019-04-07T17:28:46.194Z,15.97
2019-04-07T17:31:14.279Z,16.30
2019-04-07T17:33:45.570Z,16.40
2019-04-07T17:36:20.190Z,15.93
2019-04-07T17:38:52.313Z,16.43
2019-04-07T17:41:21.417Z,15.63
2019-04-07T17:44:01.012Z,16.10
2019-04-07T17:46:49.131Z,16.37
2019-04-07T17:49:23.139Z,16.77
2019-04-07T17:52:10.948Z,17.53
2019-04-07T17:54:40.741Z,16.80
2019-04-07T17:57:11.946Z,17.40
2019-04-07T17:59:58.508Z,17.70
2019-04-07T18:02:52.664Z,17.47
2019-04-07T18:05:28.030Z,17.27
2019-04-07T18:08:01.802Z,18.27
2019-04-07T18:10:39.060Z,18.47
2019-04-07T18:13:25.795Z,18.80
2019-04-07T18:15:56.615Z,19.43
2019-04-07T18:18:26.821Z,19.20
2019-04-07T18:21:00.746Z,20.40
2019-04-07T18:23:47.259Z,19.53
2019-04-07T18:26:22.106Z,18.67
2019-04-07T18:28:55.942Z,20.37
2019-04-07T18:31:57.393Z,21.20
2019-04-07T18:34:45.000Z,21.17
2019-04-07T18:37:15.826Z,20.77
2019-04-07T18:39:52.335Z,20.20
2019-04-07T18:42:37.068Z,21.90
2019-04-07T18:45:23.211Z,21.30
2019-04-07T18:48:09.446Z,22.13
2019-04-07T18:50:40.060Z,22.50
2019-04-07T18:53:16.731Z,24.00
2019-04-07T18:55:59.272Z,22.77
2019-04-07T18:58:33.232Z,23.53
2019-04-07T19:01:11.594Z,23.90
2019-04-07T19:03:53.250Z,24.13
2019-04-07T19:06:42.180Z,24.27
2019-04-07T19:09:11.168Z,24.57
2019-04-07T19:11:41.693Z,24.47
2019-04-07T19:14:31.588Z,24.33
2019-04-07T19:16:52.872Z,24.57
2019-04-07T19:19:24.163Z,24.40
2019-04-07T19:22:04.540Z,25.63
2019-04-07T19:24:35.825Z,24.73
2019-04-07T19:27:21.879Z,24.23
2019-04-07T19:30:05.874Z,24.67
2019-04-07T19:32:36.874Z,24.90
2019-04-07T19:35:17.168Z,26.43
2019-04-07T19:38:04.727Z,25.13
2019-04-07T19:40:43.995Z,24.70
2019-04-07T19:43:31.907Z,26.93
2019-04-07T19:46:02.802Z,24.20
2019-04-07T19:48:34.322Z,25.67
2019-04-07T19:51:10.918Z,26.10
2019-04-07T19:53:44.201Z,25.47
2019-04-07T19:56:30.192Z,25.27
2019-04-07T19:59:17.353Z,25.03
2019-04-07T20:01:50.703Z,26.73
2019-04-07T20:04:23.632Z,27.00
2019-04-07T20:06:59.510Z,26.97
2019-04-07T20:09:39.119Z,27.57
2019-04-07T20:12:10.630Z,26.53
2019-04-07T20:14:56.562Z,28.33
2019-04-07T20:17:35.044Z,28.67
2019-04-07T20:20:24.232Z,32.00
2019-04-07T20:23:00.269Z,28.63
2019-04-07T20:25:36.171Z,30.33
2019-04-07T20:28:06.593Z,29.97
2019-04-07T20:30:45.558Z,30.37
2019-04-07T20:33:14.713Z,30.77
2019-04-07T20:35:48.025Z,30.53
2019-04-07T20:38:30.207Z,30.13
2019-04-07T20:41:10.357Z,30.70
2019-04-07T20:43:45.157Z,32.50
2019-04-07T20:46:32.000Z,31.13
2019-04-07T20:49:02.838Z,31.23
2019-04-07T20:51:52.978Z,30.93
2019-04-07T20:54:35.187Z,30.63
2019-04-07T20:57:09.255Z,31.17
2019-04-07T20:59:54.199Z,31.77
2019-04-07T21:02:30.266Z,33.07
2019-04-07T21:05:04.585Z,34.97
2019-04-07T21:07:35.494Z,33.00
2019-04-07T21:10:11.197Z,34.23
2019-04-07T21:12:42.799Z,34.87
2019-04-07T21:15:30.933Z,36.13
2019-04-07T21:18:17.907Z,36.03
2019-04-07T21:20:48.354Z,36.93
2019-04-07T21:23:21.294Z,37.27
2019-04-07T21:25:56.806Z,39.47
2019-04-07T21:28:42.771Z,38.47
2019-04-07T21:31:20.375Z,39.07
2019-04-07T21:33:57.687Z,39.77
2019-04-07T21:36:28.082Z,39.83
2019-04-07T21:39:16.574Z,39.97
2019-04-07T21:41:56.229Z,40.53
2019-04-07T21:44:38.595Z,40.10
2019-04-07T21:47:23.193Z,40.57
2019-04-07T21:49:53.571Z,41.63
2019-04-07T21:52:29.951Z,40.10
2019-04-07T21:55:16.969Z,43.70
2019-04-07T21:57:53.528Z,41.63
2019-04-07T22:00:19.083Z,42.63
2019-04-07T22:02:54.972Z,44.40
2019-04-07T22:05:26.882Z,45.10
2019-04-07T22:07:57.024Z,45.00
2019-04-07T22:10:27.569Z,44.67
2019-04-07T22:12:59.344Z,45.00
2019-04-07T22:15:26.747Z,45.80
2019-04-07T22:17:56.234Z,46.87
2019-04-07T22:20:25.066Z,44.40
2019-04-07T22:22:54.318Z,45.83
2019-04-07T22:25:32.546Z,47.70
2019-04-07T22:28:01.479Z,47.57
2019-04-07T22:30:30.637Z,48.37
2019-04-07T22:32:59.807Z,47.77
2019-04-07T22:35:28.693Z,47.50
2019-04-07T22:37:57.335Z,48.87
2019-04-07T22:40:26.641Z,46.87
2019-04-07T22:42:55.185Z,50.07
2019-04-07T22:45:26.849Z,48.90
2019-04-07T22:47:53.862Z,47.90
2019-04-07T22:50:23.355Z,48.07
2019-04-07T22:52:52.217Z,51.67
2019-04-07T22:55:21.030Z,48.70
2019-04-07T22:57:49.567Z,47.73
2019-04-07T23:00:21.303Z,46.67
2019-04-07T23:02:49.906Z,48.70
2019-04-07T23:05:19.137Z,47.77
2019-04-07T23:07:48.098Z,46.43
2019-04-07T23:10:17.743Z,48.70
2019-04-07T23:12:46.475Z,48.97
2019-04-07T23:15:15.219Z,46.23
2019-04-07T23:17:43.918Z,47.73
2019-04-07T23:20:13.120Z,46.77
2019-04-07T23:22:42.431Z,48.70
2019-04-07T23:25:11.959Z,48.93
2019-04-07T23:27:41.548Z,48.70
2019-04-07T23:30:11.742Z,48.60
2019-04-07T23:32:40.227Z,47.83
2019-04-07T23:35:08.850Z,48.67
2019-04-07T23:37:37.345Z,50.30
2019-04-07T23:40:06.783Z,51.23
2019-04-07T23:42:36.055Z,50.63
2019-04-07T23:45:06.910Z,48.63
2019-04-07T23:47:35.505Z,48.13
2019-04-07T23:50:07.147Z,50.23
2019-04-07T23:52:35.663Z,50.73
2019-04-07T23:55:04.323Z,48.73
2019-04-07T23:57:32.939Z,50.53
